sensor_id;sensor_type;location;lat;lon;timestamp;P1;durP1;ratioP1;P2;durP2;ratioP2
74223;SDS011;62585;49.706;18.216;2023-03-01T00:01:24;42.92;;;17.00;;
74223;SDS011;62585;49.706;18.216;2023-03-01T00:03:52;37.08;;;15.63;;
74223;SDS011;62585;49.706;18.216;2023-03-01T00:06:19;36.03;;;19.08;;
74223;SDS011;62585;49.706;18.216;2023-03-01T00:08:45;38.92;;;17.40;;
74223;SDS011;62585;49.706;18.216;2023-03-01T00:11:13;44.33;;;16.73;;
74223;SDS011;62585;49.706;18.216;2023-03-01T00:13:44;45.45;;;17.65;;
74223;SDS011;62585;49.706;18.216;2023-03-01T00:16:12;34.25;;;16.80;;
74223;SDS011;62585;49.706;18.216;2023-03-01T00:18:40;34.30;;;15.13;;
74223;SDS011;62585;49.706;18.216;2023-03-01T00:21:06;43.92;;;18.20;;
74223;SDS011;62585;49.706;18.216;2023-03-01T00:23:33;42.17;;;19.27;;
74223;SDS011;62585;49.706;18.216;2023-03-01T00:25:59;38.33;;;19.02;;
74223;SDS011;62585;49.706;18.216;2023-03-01T00:28:25;38.55;;;18.13;;
74223;SDS011;62585;49.706;18.216;2023-03-01T00:30:51;38.28;;;17.73;;
74223;SDS011;62585;49.706;18.216;2023-03-01T00:33:17;35.78;;;16.65;;
74223;SDS011;62585;49.706;18.216;2023-03-01T00:35:43;33.58;;;15.27;;
74223;SDS011;62585;49.706;18.216;2023-03-01T00:38:09;35.95;;;19.65;;
74223;SDS011;62585;49.706;18.216;2023-03-01T00:40:35;29.75;;;13.52;;
74223;SDS011;62585;49.706;18.216;2023-03-01T00:43:02;31.13;;;15.52;;
74223;SDS011;62585;49.706;18.216;2023-03-01T00:45:28;31.27;;;16.90;;
74223;SDS011;62585;49.706;18.216;2023-03-01T00:47:56;44.30;;;20.45;;
74223;SDS011;62585;49.706;18.216;2023-03-01T00:50:22;37.17;;;20.38;;
74223;SDS011;62585;49.706;18.216;2023-03-01T00:52:52;41.83;;;21.55;;
74223;SDS011;62585;49.706;18.216;2023-03-01T00:55:19;41.88;;;19.65;;
74223;SDS011;62585;49.706;18.216;2023-03-01T00:57:44;31.08;;;15.90;;
74223;SDS011;62585;49.706;18.216;2023-03-01T01:00:10;36.03;;;16.38;;
74223;SDS011;62585;49.706;18.216;2023-03-01T01:02:37;33.75;;;16.23;;
74223;SDS011;62585;49.706;18.216;2023-03-01T01:05:03;40.38;;;16.52;;
74223;SDS011;62585;49.706;18.216;2023-03-01T01:07:29;38.90;;;17.42;;
74223;SDS011;62585;49.706;18.216;2023-03-01T01:09:55;31.48;;;15.88;;
74223;SDS011;62585;49.706;18.216;2023-03-01T01:12:21;30.90;;;17.75;;
74223;SDS011;62585;49.706;18.216;2023-03-01T01:14:47;44.42;;;20.17;;
74223;SDS011;62585;49.706;18.216;2023-03-01T01:17:13;35.83;;;16.52;;
74223;SDS011;62585;49.706;18.216;2023-03-01T01:19:39;40.53;;;16.35;;
74223;SDS011;62585;49.706;18.216;2023-03-01T01:22:05;31.92;;;17.15;;
74223;SDS011;62585;49.706;18.216;2023-03-01T01:24:30;37.20;;;18.00;;
74223;SDS011;62585;49.706;18.216;2023-03-01T01:26:56;37.13;;;17.08;;
74223;SDS011;62585;49.706;18.216;2023-03-01T01:29:22;31.60;;;14.32;;
74223;SDS011;62585;49.706;18.216;2023-03-01T01:31:48;42.58;;;21.30;;
74223;SDS011;62585;49.706;18.216;2023-03-01T01:34:15;34.35;;;16.92;;
74223;SDS011;62585;49.706;18.216;2023-03-01T01:36:42;35.97;;;17.20;;
74223;SDS011;62585;49.706;18.216;2023-03-01T01:39:09;22.10;;;13.85;;
74223;SDS011;62585;49.706;18.216;2023-03-01T01:41:39;30.75;;;14.93;;
74223;SDS011;62585;49.706;18.216;2023-03-01T01:49:17;33.50;;;16.48;;
74223;SDS011;62585;49.706;18.216;2023-03-01T01:51:49;41.60;;;18.55;;
74223;SDS011;62585;49.706;18.216;2023-03-01T01:54:23;36.35;;;16.08;;
74223;SDS011;62585;49.706;18.216;2023-03-01T01:57:00;33.80;;;17.42;;
74223;SDS011;62585;49.706;18.216;2023-03-01T01:59:29;30.15;;;16.38;;
74223;SDS011;62585;49.706;18.216;2023-03-01T02:01:57;35.78;;;16.02;;
74223;SDS011;62585;49.706;18.216;2023-03-01T02:04:25;35.65;;;17.27;;
74223;SDS011;62585;49.706;18.216;2023-03-01T02:06:53;38.00;;;15.65;;
74223;SDS011;62585;49.706;18.216;2023-03-01T02:09:24;37.47;;;17.30;;
74223;SDS011;62585;49.706;18.216;2023-03-01T02:11:52;31.52;;;18.60;;
74223;SDS011;62585;49.706;18.216;2023-03-01T02:14:19;49.72;;;19.48;;
74223;SDS011;62585;49.706;18.216;2023-03-01T02:16:45;37.50;;;17.55;;
74223;SDS011;62585;49.706;18.216;2023-03-01T02:19:13;42.47;;;18.98;;
74223;SDS011;62585;49.706;18.216;2023-03-01T02:22:13;44.60;;;17.92;;
74223;SDS011;62585;49.706;18.216;2023-03-01T02:25:08;33.33;;;17.25;;
74223;SDS011;62585;49.706;18.216;2023-03-01T02:27:59;26.52;;;15.18;;
74223;SDS011;62585;49.706;18.216;2023-03-01T02:30:48;34.80;;;16.73;;
74223;SDS011;62585;49.706;18.216;2023-03-01T02:33:34;38.33;;;16.25;;
74223;SDS011;62585;49.706;18.216;2023-03-01T02:36:06;34.10;;;19.25;;
74223;SDS011;62585;49.706;18.216;2023-03-01T02:38:36;39.58;;;17.58;;
74223;SDS011;62585;49.706;18.216;2023-03-01T02:41:02;35.47;;;17.45;;
74223;SDS011;62585;49.706;18.216;2023-03-01T02:43:30;43.63;;;17.38;;
74223;SDS011;62585;49.706;18.216;2023-03-01T02:48:51;29.95;;;15.07;;
74223;SDS011;62585;49.706;18.216;2023-03-01T02:51:18;26.65;;;11.77;;
74223;SDS011;62585;49.706;18.216;2023-03-01T02:56:31;42.05;;;14.00;;
74223;SDS011;62585;49.706;18.216;2023-03-01T02:58:57;31.05;;;13.90;;
74223;SDS011;62585;49.706;18.216;2023-03-01T03:01:26;41.30;;;16.75;;
74223;SDS011;62585;49.706;18.216;2023-03-01T03:04:09;35.90;;;16.20;;
74223;SDS011;62585;49.706;18.216;2023-03-01T03:06:42;38.80;;;17.88;;
74223;SDS011;62585;49.706;18.216;2023-03-01T03:09:11;39.90;;;18.98;;
74223;SDS011;62585;49.706;18.216;2023-03-01T03:11:38;35.97;;;17.67;;
74223;SDS011;62585;49.706;18.216;2023-03-01T03:14:06;34.28;;;16.05;;
74223;SDS011;62585;49.706;18.216;2023-03-01T03:16:49;48.05;;;20.13;;
74223;SDS011;62585;49.706;18.216;2023-03-01T03:19:16;45.70;;;19.63;;
74223;SDS011;62585;49.706;18.216;2023-03-01T03:21:43;44.85;;;18.23;;
74223;SDS011;62585;49.706;18.216;2023-03-01T03:24:10;40.38;;;17.50;;
74223;SDS011;62585;49.706;18.216;2023-03-01T03:26:35;48.72;;;17.42;;
74223;SDS011;62585;49.706;18.216;2023-03-01T03:29:02;40.78;;;17.85;;
74223;SDS011;62585;49.706;18.216;2023-03-01T03:31:27;42.03;;;17.85;;
74223;SDS011;62585;49.706;18.216;2023-03-01T03:33:53;43.65;;;19.02;;
74223;SDS011;62585;49.706;18.216;2023-03-01T03:36:21;35.85;;;17.65;;
74223;SDS011;62585;49.706;18.216;2023-03-01T03:38:48;56.65;;;21.05;;
74223;SDS011;62585;49.706;18.216;2023-03-01T03:41:15;42.10;;;17.92;;
74223;SDS011;62585;49.706;18.216;2023-03-01T03:43:42;40.53;;;20.20;;
74223;SDS011;62585;49.706;18.216;2023-03-01T03:46:09;40.92;;;16.73;;
74223;SDS011;62585;49.706;18.216;2023-03-01T03:48:37;39.90;;;18.10;;
74223;SDS011;62585;49.706;18.216;2023-03-01T03:51:09;39.47;;;18.67;;
74223;SDS011;62585;49.706;18.216;2023-03-01T03:53:36;42.50;;;20.05;;
74223;SDS011;62585;49.706;18.216;2023-03-01T03:56:02;38.63;;;17.00;;
74223;SDS011;62585;49.706;18.216;2023-03-01T03:58:29;51.72;;;19.27;;
74223;SDS011;62585;49.706;18.216;2023-03-01T04:00:55;43.95;;;18.30;;
74223;SDS011;62585;49.706;18.216;2023-03-01T04:03:23;39.15;;;18.25;;
74223;SDS011;62585;49.706;18.216;2023-03-01T04:05:50;38.65;;;18.80;;
74223;SDS011;62585;49.706;18.216;2023-03-01T04:08:18;50.95;;;20.90;;
74223;SDS011;62585;49.706;18.216;2023-03-01T04:10:48;41.58;;;19.50;;
74223;SDS011;62585;49.706;18.216;2023-03-01T04:13:17;51.20;;;23.20;;
74223;SDS011;62585;49.706;18.216;2023-03-01T04:15:46;47.20;;;20.33;;
74223;SDS011;62585;49.706;18.216;2023-03-01T04:18:14;34.42;;;18.92;;
74223;SDS011;62585;49.706;18.216;2023-03-01T04:20:41;38.80;;;16.63;;
74223;SDS011;62585;49.706;18.216;2023-03-01T04:23:13;43.53;;;20.42;;
74223;SDS011;62585;49.706;18.216;2023-03-01T04:25:49;45.42;;;17.95;;
74223;SDS011;62585;49.706;18.216;2023-03-01T04:30:50;36.92;;;14.60;;
74223;SDS011;62585;49.706;18.216;2023-03-01T04:33:16;29.13;;;15.20;;
74223;SDS011;62585;49.706;18.216;2023-03-01T04:35:42;35.97;;;16.20;;
74223;SDS011;62585;49.706;18.216;2023-03-01T04:38:08;39.42;;;18.30;;
74223;SDS011;62585;49.706;18.216;2023-03-01T04:40:34;38.35;;;19.02;;
74223;SDS011;62585;49.706;18.216;2023-03-01T04:43:00;31.60;;;17.58;;
74223;SDS011;62585;49.706;18.216;2023-03-01T04:45:26;39.75;;;17.95;;
74223;SDS011;62585;49.706;18.216;2023-03-01T04:47:53;30.55;;;16.05;;
74223;SDS011;62585;49.706;18.216;2023-03-01T04:50:19;37.33;;;15.93;;
74223;SDS011;62585;49.706;18.216;2023-03-01T04:52:49;38.97;;;18.52;;
74223;SDS011;62585;49.706;18.216;2023-03-01T04:55:15;37.47;;;16.08;;
74223;SDS011;62585;49.706;18.216;2023-03-01T04:57:41;47.22;;;18.90;;
74223;SDS011;62585;49.706;18.216;2023-03-01T05:00:08;39.72;;;20.02;;
74223;SDS011;62585;49.706;18.216;2023-03-01T05:02:46;37.83;;;16.25;;
74223;SDS011;62585;49.706;18.216;2023-03-01T05:07:39;25.67;;;12.50;;
74223;SDS011;62585;49.706;18.216;2023-03-01T05:10:05;41.55;;;17.33;;
74223;SDS011;62585;49.706;18.216;2023-03-01T05:12:31;40.38;;;16.35;;
74223;SDS011;62585;49.706;18.216;2023-03-01T05:14:56;23.95;;;13.98;;
74223;SDS011;62585;49.706;18.216;2023-03-01T05:17:23;33.05;;;16.08;;
74223;SDS011;62585;49.706;18.216;2023-03-01T05:19:49;40.53;;;16.33;;
74223;SDS011;62585;49.706;18.216;2023-03-01T05:22:15;37.30;;;17.15;;
74223;SDS011;62585;49.706;18.216;2023-03-01T05:24:41;32.30;;;16.35;;
74223;SDS011;62585;49.706;18.216;2023-03-01T05:27:07;39.53;;;20.40;;
74223;SDS011;62585;49.706;18.216;2023-03-01T05:29:33;32.88;;;18.13;;
74223;SDS011;62585;49.706;18.216;2023-03-01T05:32:00;31.20;;;15.25;;
74223;SDS011;62585;49.706;18.216;2023-03-01T05:34:28;38.03;;;17.48;;
74223;SDS011;62585;49.706;18.216;2023-03-01T05:36:59;42.58;;;17.40;;
74223;SDS011;62585;49.706;18.216;2023-03-01T05:39:25;28.23;;;16.80;;
74223;SDS011;62585;49.706;18.216;2023-03-01T05:41:53;32.67;;;16.90;;
74223;SDS011;62585;49.706;18.216;2023-03-01T05:44:21;42.72;;;20.73;;
74223;SDS011;62585;49.706;18.216;2023-03-01T05:46:47;30.25;;;15.27;;
74223;SDS011;62585;49.706;18.216;2023-03-01T05:49:14;34.63;;;16.92;;
74223;SDS011;62585;49.706;18.216;2023-03-01T05:51:40;42.22;;;19.10;;
74223;SDS011;62585;49.706;18.216;2023-03-01T05:54:07;41.47;;;16.42;;
74223;SDS011;62585;49.706;18.216;2023-03-01T05:56:35;38.95;;;17.10;;
74223;SDS011;62585;49.706;18.216;2023-03-01T05:59:02;45.38;;;17.83;;
74223;SDS011;62585;49.706;18.216;2023-03-01T06:01:30;48.70;;;21.52;;
74223;SDS011;62585;49.706;18.216;2023-03-01T06:04:00;43.25;;;19.65;;
74223;SDS011;62585;49.706;18.216;2023-03-01T06:06:26;34.92;;;15.43;;
74223;SDS011;62585;49.706;18.216;2023-03-01T06:08:52;49.05;;;17.63;;
74223;SDS011;62585;49.706;18.216;2023-03-01T06:11:19;39.28;;;17.75;;
74223;SDS011;62585;49.706;18.216;2023-03-01T06:13:45;45.72;;;20.73;;
74223;SDS011;62585;49.706;18.216;2023-03-01T06:16:12;59.35;;;21.50;;
74223;SDS011;62585;49.706;18.216;2023-03-01T06:18:39;45.03;;;21.42;;
74223;SDS011;62585;49.706;18.216;2023-03-01T06:21:05;45.60;;;21.33;;
74223;SDS011;62585;49.706;18.216;2023-03-01T06:23:32;47.63;;;20.58;;
74223;SDS011;62585;49.706;18.216;2023-03-01T06:25:58;33.83;;;16.48;;
74223;SDS011;62585;49.706;18.216;2023-03-01T06:28:25;36.45;;;17.20;;
74223;SDS011;62585;49.706;18.216;2023-03-01T06:30:51;43.83;;;17.98;;
74223;SDS011;62585;49.706;18.216;2023-03-01T06:33:17;45.15;;;22.80;;
74223;SDS011;62585;49.706;18.216;2023-03-01T06:35:45;38.22;;;17.85;;
74223;SDS011;62585;49.706;18.216;2023-03-01T06:38:12;42.00;;;20.88;;
74223;SDS011;62585;49.706;18.216;2023-03-01T06:40:40;53.60;;;23.70;;
74223;SDS011;62585;49.706;18.216;2023-03-01T06:43:05;34.15;;;20.50;;
74223;SDS011;62585;49.706;18.216;2023-03-01T06:45:33;56.22;;;23.70;;
74223;SDS011;62585;49.706;18.216;2023-03-01T06:48:05;42.85;;;20.83;;
74223;SDS011;62585;49.706;18.216;2023-03-01T06:50:32;47.50;;;24.80;;
74223;SDS011;62585;49.706;18.216;2023-03-01T06:52:59;35.25;;;19.15;;
74223;SDS011;62585;49.706;18.216;2023-03-01T06:55:25;55.15;;;26.95;;
74223;SDS011;62585;49.706;18.216;2023-03-01T06:57:54;58.30;;;23.48;;
74223;SDS011;62585;49.706;18.216;2023-03-01T07:00:21;48.88;;;24.40;;
74223;SDS011;62585;49.706;18.216;2023-03-01T07:02:47;50.28;;;22.70;;
74223;SDS011;62585;49.706;18.216;2023-03-01T07:05:13;52.00;;;19.95;;
74223;SDS011;62585;49.706;18.216;2023-03-01T07:07:39;52.40;;;17.92;;
74223;SDS011;62585;49.706;18.216;2023-03-01T07:10:05;40.83;;;17.90;;
74223;SDS011;62585;49.706;18.216;2023-03-01T07:12:32;36.40;;;20.02;;
74223;SDS011;62585;49.706;18.216;2023-03-01T07:14:58;39.20;;;19.40;;
74223;SDS011;62585;49.706;18.216;2023-03-01T07:17:24;56.17;;;25.92;;
74223;SDS011;62585;49.706;18.216;2023-03-01T07:19:50;54.45;;;25.25;;
74223;SDS011;62585;49.706;18.216;2023-03-01T07:22:15;59.42;;;27.33;;
74223;SDS011;62585;49.706;18.216;2023-03-01T07:24:41;52.70;;;20.48;;
74223;SDS011;62585;49.706;18.216;2023-03-01T07:27:07;40.70;;;19.00;;
74223;SDS011;62585;49.706;18.216;2023-03-01T07:29:33;42.65;;;18.98;;
74223;SDS011;62585;49.706;18.216;2023-03-01T07:32:01;57.63;;;23.20;;
74223;SDS011;62585;49.706;18.216;2023-03-01T07:34:28;52.15;;;20.85;;
74223;SDS011;62585;49.706;18.216;2023-03-01T07:36:54;44.78;;;22.15;;
74223;SDS011;62585;49.706;18.216;2023-03-01T07:39:19;47.53;;;20.95;;
74223;SDS011;62585;49.706;18.216;2023-03-01T07:41:45;52.35;;;24.45;;
74223;SDS011;62585;49.706;18.216;2023-03-01T07:44:11;40.60;;;20.92;;
74223;SDS011;62585;49.706;18.216;2023-03-01T07:46:37;51.28;;;22.38;;
74223;SDS011;62585;49.706;18.216;2023-03-01T07:49:03;48.22;;;21.92;;
74223;SDS011;62585;49.706;18.216;2023-03-01T07:51:29;56.00;;;26.08;;
74223;SDS011;62585;49.706;18.216;2023-03-01T07:53:55;60.20;;;26.65;;
74223;SDS011;62585;49.706;18.216;2023-03-01T07:56:21;49.10;;;23.38;;
74223;SDS011;62585;49.706;18.216;2023-03-01T07:58:47;19.25;;;11.35;;
74223;SDS011;62585;49.706;18.216;2023-03-01T08:01:14;21.90;;;14.43;;
74223;SDS011;62585;49.706;18.216;2023-03-01T08:03:42;40.30;;;21.83;;
74223;SDS011;62585;49.706;18.216;2023-03-01T08:06:09;53.28;;;24.00;;
74223;SDS011;62585;49.706;18.216;2023-03-01T08:08:40;54.50;;;26.65;;
74223;SDS011;62585;49.706;18.216;2023-03-01T08:11:13;57.72;;;25.83;;
74223;SDS011;62585;49.706;18.216;2023-03-01T08:13:40;34.63;;;17.02;;
74223;SDS011;62585;49.706;18.216;2023-03-01T08:16:15;38.90;;;17.52;;
74223;SDS011;62585;49.706;18.216;2023-03-01T08:18:42;27.50;;;15.35;;
74223;SDS011;62585;49.706;18.216;2023-03-01T08:21:10;49.80;;;25.85;;
74223;SDS011;62585;49.706;18.216;2023-03-01T08:23:38;61.83;;;25.95;;
74223;SDS011;62585;49.706;18.216;2023-03-01T08:28:33;49.13;;;24.58;;
74223;SDS011;62585;49.706;18.216;2023-03-01T08:30:59;56.72;;;23.15;;
74223;SDS011;62585;49.706;18.216;2023-03-01T08:33:25;44.30;;;20.98;;
74223;SDS011;62585;49.706;18.216;2023-03-01T08:35:50;48.08;;;23.02;;
74223;SDS011;62585;49.706;18.216;2023-03-01T08:38:16;52.03;;;24.20;;
74223;SDS011;62585;49.706;18.216;2023-03-01T08:40:42;52.28;;;25.05;;
74223;SDS011;62585;49.706;18.216;2023-03-01T08:43:07;41.60;;;19.38;;
74223;SDS011;62585;49.706;18.216;2023-03-01T08:45:33;41.42;;;20.35;;
74223;SDS011;62585;49.706;18.216;2023-03-01T08:47:59;51.45;;;24.10;;
74223;SDS011;62585;49.706;18.216;2023-03-01T08:50:24;50.30;;;21.95;;
74223;SDS011;62585;49.706;18.216;2023-03-01T08:52:50;53.97;;;23.52;;
74223;SDS011;62585;49.706;18.216;2023-03-01T08:55:16;55.22;;;23.67;;
74223;SDS011;62585;49.706;18.216;2023-03-01T08:57:43;55.55;;;22.80;;
74223;SDS011;62585;49.706;18.216;2023-03-01T09:00:09;44.90;;;23.63;;
74223;SDS011;62585;49.706;18.216;2023-03-01T09:05:02;54.83;;;22.45;;
74223;SDS011;62585;49.706;18.216;2023-03-01T09:07:28;63.03;;;25.60;;
74223;SDS011;62585;49.706;18.216;2023-03-01T09:09:54;20.20;;;10.73;;
74223;SDS011;62585;49.706;18.216;2023-03-01T09:12:20;39.83;;;17.55;;
74223;SDS011;62585;49.706;18.216;2023-03-01T09:14:46;50.67;;;21.05;;
74223;SDS011;62585;49.706;18.216;2023-03-01T09:17:12;45.80;;;22.45;;
74223;SDS011;62585;49.706;18.216;2023-03-01T09:19:38;41.53;;;19.42;;
74223;SDS011;62585;49.706;18.216;2023-03-01T09:22:04;46.25;;;21.25;;
74223;SDS011;62585;49.706;18.216;2023-03-01T09:24:30;49.47;;;22.48;;
74223;SDS011;62585;49.706;18.216;2023-03-01T09:26:56;33.75;;;16.75;;
74223;SDS011;62585;49.706;18.216;2023-03-01T09:29:22;36.42;;;18.80;;
74223;SDS011;62585;49.706;18.216;2023-03-01T09:31:48;53.00;;;22.50;;
74223;SDS011;62585;49.706;18.216;2023-03-01T09:34:14;54.45;;;24.15;;
74223;SDS011;62585;49.706;18.216;2023-03-01T09:36:48;50.60;;;24.38;;
74223;SDS011;62585;49.706;18.216;2023-03-01T09:39:15;47.60;;;23.50;;
74223;SDS011;62585;49.706;18.216;2023-03-01T09:42:16;46.83;;;21.73;;
74223;SDS011;62585;49.706;18.216;2023-03-01T09:44:42;44.90;;;20.95;;
74223;SDS011;62585;49.706;18.216;2023-03-01T09:47:12;48.35;;;22.13;;
74223;SDS011;62585;49.706;18.216;2023-03-01T09:49:42;41.85;;;20.63;;
74223;SDS011;62585;49.706;18.216;2023-03-01T09:55:26;50.78;;;24.88;;
74223;SDS011;62585;49.706;18.216;2023-03-01T09:57:59;31.20;;;12.23;;
74223;SDS011;62585;49.706;18.216;2023-03-01T10:00:44;25.45;;;12.50;;
74223;SDS011;62585;49.706;18.216;2023-03-01T10:03:16;40.55;;;18.55;;
74223;SDS011;62585;49.706;18.216;2023-03-01T10:05:50;34.40;;;15.50;;
74223;SDS011;62585;49.706;18.216;2023-03-01T10:08:33;39.25;;;17.80;;
74223;SDS011;62585;49.706;18.216;2023-03-01T10:11:04;25.48;;;11.15;;
74223;SDS011;62585;49.706;18.216;2023-03-01T10:13:50;41.40;;;20.73;;
74223;SDS011;62585;49.706;18.216;2023-03-01T10:19:03;40.10;;;18.00;;
74223;SDS011;62585;49.706;18.216;2023-03-01T10:21:31;39.28;;;15.60;;
74223;SDS011;62585;49.706;18.216;2023-03-01T10:24:16;37.50;;;17.35;;
74223;SDS011;62585;49.706;18.216;2023-03-01T10:26:55;40.47;;;18.25;;
74223;SDS011;62585;49.706;18.216;2023-03-01T10:29:31;30.13;;;15.85;;
74223;SDS011;62585;49.706;18.216;2023-03-01T10:32:04;23.33;;;11.65;;
74223;SDS011;62585;49.706;18.216;2023-03-01T10:34:34;17.35;;;10.10;;
74223;SDS011;62585;49.706;18.216;2023-03-01T10:37:10;24.33;;;11.23;;
74223;SDS011;62585;49.706;18.216;2023-03-01T10:39:54;27.80;;;12.70;;
74223;SDS011;62585;49.706;18.216;2023-03-01T10:42:29;22.80;;;11.15;;
74223;SDS011;62585;49.706;18.216;2023-03-01T10:44:57;17.50;;;9.30;;
74223;SDS011;62585;49.706;18.216;2023-03-01T10:47:25;19.38;;;9.02;;
74223;SDS011;62585;49.706;18.216;2023-03-01T10:52:20;16.63;;;8.73;;
74223;SDS011;62585;49.706;18.216;2023-03-01T10:54:52;26.30;;;9.63;;
74223;SDS011;62585;49.706;18.216;2023-03-01T10:57:28;15.48;;;8.45;;
74223;SDS011;62585;49.706;18.216;2023-03-01T11:02:48;23.50;;;11.77;;
74223;SDS011;62585;49.706;18.216;2023-03-01T11:05:17;23.63;;;10.63;;
74223;SDS011;62585;49.706;18.216;2023-03-01T11:07:49;28.80;;;14.00;;
74223;SDS011;62585;49.706;18.216;2023-03-01T11:10:19;29.92;;;13.82;;
74223;SDS011;62585;49.706;18.216;2023-03-01T11:12:46;31.90;;;14.70;;
74223;SDS011;62585;49.706;18.216;2023-03-01T11:15:19;27.25;;;12.63;;
74223;SDS011;62585;49.706;18.216;2023-03-01T11:17:48;23.33;;;11.27;;
74223;SDS011;62585;49.706;18.216;2023-03-01T11:20:19;30.75;;;13.52;;
74223;SDS011;62585;49.706;18.216;2023-03-01T11:22:47;24.25;;;12.65;;
74223;SDS011;62585;49.706;18.216;2023-03-01T11:25:17;13.95;;;8.55;;
74223;SDS011;62585;49.706;18.216;2023-03-01T11:27:48;17.27;;;9.18;;
74223;SDS011;62585;49.706;18.216;2023-03-01T11:35:41;34.78;;;16.75;;
74223;SDS011;62585;49.706;18.216;2023-03-01T11:38:23;38.38;;;17.58;;
74223;SDS011;62585;49.706;18.216;2023-03-01T11:41:34;34.67;;;16.45;;
74223;SDS011;62585;49.706;18.216;2023-03-01T11:43:52;34.45;;;16.40;;
74223;SDS011;62585;49.706;18.216;2023-03-01T11:49:04;22.58;;;9.70;;
74223;SDS011;62585;49.706;18.216;2023-03-01T11:51:55;21.88;;;10.18;;
74223;SDS011;62585;49.706;18.216;2023-03-01T11:57:24;26.42;;;12.77;;
74223;SDS011;62585;49.706;18.216;2023-03-01T12:00:14;28.65;;;12.90;;
74223;SDS011;62585;49.706;18.216;2023-03-01T12:11:48;21.65;;;11.30;;
74223;SDS011;62585;49.706;18.216;2023-03-01T12:22:29;18.30;;;8.95;;
74223;SDS011;62585;49.706;18.216;2023-03-01T12:30:52;19.48;;;9.82;;
74223;SDS011;62585;49.706;18.216;2023-03-01T12:52:54;18.33;;;8.75;;
74223;SDS011;62585;49.706;18.216;2023-03-01T12:58:00;17.83;;;10.30;;
74223;SDS011;62585;49.706;18.216;2023-03-01T13:01:19;21.17;;;10.57;;
74223;SDS011;62585;49.706;18.216;2023-03-01T13:06:19;16.80;;;10.25;;
74223;SDS011;62585;49.706;18.216;2023-03-01T13:09:10;18.42;;;10.00;;
74223;SDS011;62585;49.706;18.216;2023-03-01T13:11:40;15.25;;;7.78;;
74223;SDS011;62585;49.706;18.216;2023-03-01T13:16:48;20.42;;;10.88;;
74223;SDS011;62585;49.706;18.216;2023-03-01T13:19:20;17.85;;;9.52;;
74223;SDS011;62585;49.706;18.216;2023-03-01T13:21:48;22.33;;;10.63;;
74223;SDS011;62585;49.706;18.216;2023-03-01T13:32:28;23.35;;;10.55;;
74223;SDS011;62585;49.706;18.216;2023-03-01T13:37:42;22.38;;;10.82;;
74223;SDS011;62585;49.706;18.216;2023-03-01T13:42:42;16.23;;;8.32;;
74223;SDS011;62585;49.706;18.216;2023-03-01T13:45:16;22.42;;;10.88;;
74223;SDS011;62585;49.706;18.216;2023-03-01T13:47:49;23.60;;;11.20;;
74223;SDS011;62585;49.706;18.216;2023-03-01T13:50:20;8.23;;;5.28;;
74223;SDS011;62585;49.706;18.216;2023-03-01T13:52:56;15.10;;;7.63;;
74223;SDS011;62585;49.706;18.216;2023-03-01T13:55:27;17.13;;;8.50;;
74223;SDS011;62585;49.706;18.216;2023-03-01T13:58:01;19.25;;;9.02;;
74223;SDS011;62585;49.706;18.216;2023-03-01T14:00:36;17.05;;;9.32;;
74223;SDS011;62585;49.706;18.216;2023-03-01T14:03:05;16.25;;;8.63;;
74223;SDS011;62585;49.706;18.216;2023-03-01T14:05:37;17.25;;;10.05;;
74223;SDS011;62585;49.706;18.216;2023-03-01T14:08:05;18.73;;;10.10;;
74223;SDS011;62585;49.706;18.216;2023-03-01T14:10:53;21.55;;;11.55;;
74223;SDS011;62585;49.706;18.216;2023-03-01T14:16:05;13.27;;;9.07;;
74223;SDS011;62585;49.706;18.216;2023-03-01T14:21:46;17.08;;;8.55;;
74223;SDS011;62585;49.706;18.216;2023-03-01T14:24:20;16.73;;;7.78;;
74223;SDS011;62585;49.706;18.216;2023-03-01T14:26:49;19.88;;;10.43;;
74223;SDS011;62585;49.706;18.216;2023-03-01T14:31:50;20.35;;;10.10;;
74223;SDS011;62585;49.706;18.216;2023-03-01T14:34:20;18.00;;;9.18;;
74223;SDS011;62585;49.706;18.216;2023-03-01T14:36:47;17.85;;;8.70;;
74223;SDS011;62585;49.706;18.216;2023-03-01T14:39:17;19.38;;;9.55;;
74223;SDS011;62585;49.706;18.216;2023-03-01T14:41:45;17.15;;;8.88;;
74223;SDS011;62585;49.706;18.216;2023-03-01T14:44:13;19.63;;;9.95;;
74223;SDS011;62585;49.706;18.216;2023-03-01T14:46:45;21.23;;;10.60;;
74223;SDS011;62585;49.706;18.216;2023-03-01T14:49:13;18.80;;;9.15;;
74223;SDS011;62585;49.706;18.216;2023-03-01T14:51:43;21.17;;;11.07;;
74223;SDS011;62585;49.706;18.216;2023-03-01T14:54:21;17.33;;;8.88;;
74223;SDS011;62585;49.706;18.216;2023-03-01T14:58:51;20.30;;;9.35;;
74223;SDS011;62585;49.706;18.216;2023-03-01T15:01:18;21.80;;;9.82;;
74223;SDS011;62585;49.706;18.216;2023-03-01T15:03:48;16.23;;;8.75;;
74223;SDS011;62585;49.706;18.216;2023-03-01T15:06:16;20.55;;;9.90;;
74223;SDS011;62585;49.706;18.216;2023-03-01T15:08:48;16.00;;;8.65;;
74223;SDS011;62585;49.706;18.216;2023-03-01T15:11:38;15.95;;;7.40;;
74223;SDS011;62585;49.706;18.216;2023-03-01T15:14:24;16.58;;;7.95;;
74223;SDS011;62585;49.706;18.216;2023-03-01T15:17:03;20.55;;;9.80;;
74223;SDS011;62585;49.706;18.216;2023-03-01T15:19:29;18.33;;;9.13;;
74223;SDS011;62585;49.706;18.216;2023-03-01T15:21:55;16.02;;;7.32;;
74223;SDS011;62585;49.706;18.216;2023-03-01T15:24:25;18.30;;;9.55;;
74223;SDS011;62585;49.706;18.216;2023-03-01T15:26:53;17.40;;;7.78;;
74223;SDS011;62585;49.706;18.216;2023-03-01T15:29:27;18.40;;;8.85;;
74223;SDS011;62585;49.706;18.216;2023-03-01T15:31:56;19.63;;;9.75;;
74223;SDS011;62585;49.706;18.216;2023-03-01T15:34:25;21.30;;;10.02;;
74223;SDS011;62585;49.706;18.216;2023-03-01T15:36:56;24.52;;;12.02;;
74223;SDS011;62585;49.706;18.216;2023-03-01T15:39:31;32.00;;;14.80;;
74223;SDS011;62585;49.706;18.216;2023-03-01T15:42:03;32.08;;;15.38;;
74223;SDS011;62585;49.706;18.216;2023-03-01T15:45:08;33.38;;;15.23;;
74223;SDS011;62585;49.706;18.216;2023-03-01T15:47:34;31.80;;;15.15;;
74223;SDS011;62585;49.706;18.216;2023-03-01T15:50:04;29.90;;;14.75;;
74223;SDS011;62585;49.706;18.216;2023-03-01T15:52:34;34.55;;;16.83;;
74223;SDS011;62585;49.706;18.216;2023-03-01T15:55:27;32.22;;;16.42;;
74223;SDS011;62585;49.706;18.216;2023-03-01T15:58:15;33.35;;;14.82;;
74223;SDS011;62585;49.706;18.216;2023-03-01T16:00:43;34.47;;;16.77;;
74223;SDS011;62585;49.706;18.216;2023-03-01T16:03:10;31.20;;;16.23;;
74223;SDS011;62585;49.706;18.216;2023-03-01T16:05:37;31.63;;;13.90;;
74223;SDS011;62585;49.706;18.216;2023-03-01T16:08:04;30.88;;;14.82;;
74223;SDS011;62585;49.706;18.216;2023-03-01T16:10:32;35.58;;;14.77;;
74223;SDS011;62585;49.706;18.216;2023-03-01T16:12:59;32.88;;;15.05;;
74223;SDS011;62585;49.706;18.216;2023-03-01T16:15:28;32.97;;;15.88;;
74223;SDS011;62585;49.706;18.216;2023-03-01T16:17:55;31.38;;;14.25;;
74223;SDS011;62585;49.706;18.216;2023-03-01T16:20:23;31.98;;;15.18;;
74223;SDS011;62585;49.706;18.216;2023-03-01T16:22:49;38.50;;;14.70;;